sensor_id;sensor_type;location;lat;lon;timestamp;pressure;altitude;pressure_sealevel;temperature;humidity
32083;BME280;18597;48.328;7.932;2024-01-10T00:02:19;100393.13;;;-2.12;98.82
32083;BME280;18597;48.328;7.932;2024-01-10T00:04:45;100387.84;;;-2.09;96.86
32083;BME280;18597;48.328;7.932;2024-01-10T00:07:11;100387.78;;;-2.06;96.95
32083;BME280;18597;48.328;7.932;2024-01-10T00:09:37;100379.97;;;-2.08;94.91
32083;BME280;18597;48.328;7.932;2024-01-10T00:12:03;100398.03;;;-1.97;91.71
32083;BME280;18597;48.328;7.932;2024-01-10T00:14:28;100388.59;;;-2.04;91.54
32083;BME280;18597;48.328;7.932;2024-01-10T00:16:54;100387.63;;;-2.00;92.93
32083;BME280;18597;48.328;7.932;2024-01-10T00:19:20;100386.06;;;-2.07;94.78
32083;BME280;18597;48.328;7.932;2024-01-10T00:21:46;100384.94;;;-1.96;86.28
32083;BME280;18597;48.328;7.932;2024-01-10T00:24:12;100377.00;;;-1.92;86.76
32083;BME280;18597;48.328;7.932;2024-01-10T00:26:37;100377.91;;;-1.93;88.92
32083;BME280;18597;48.328;7.932;2024-01-10T00:29:03;100375.31;;;-1.97;89.57
32083;BME280;18597;48.328;7.932;2024-01-10T00:31:29;100375.16;;;-1.87;87.99
32083;BME280;18597;48.328;7.932;2024-01-10T00:33:55;100371.50;;;-1.82;86.01
32083;BME280;18597;48.328;7.932;2024-01-10T00:36:20;100366.25;;;-1.80;87.79
32083;BME280;18597;48.328;7.932;2024-01-10T00:38:46;100368.06;;;-1.84;85.80
32083;BME280;18597;48.328;7.932;2024-01-10T00:41:12;100358.31;;;-1.77;81.29
32083;BME280;18597;48.328;7.932;2024-01-10T00:43:38;100358.44;;;-1.83;81.63
32083;BME280;18597;48.328;7.932;2024-01-10T00:46:04;100359.31;;;-1.83;82.96
32083;BME280;18597;48.328;7.932;2024-01-10T00:48:30;100358.41;;;-1.80;82.38
32083;BME280;18597;48.328;7.932;2024-01-10T00:50:55;100358.41;;;-1.80;82.71
32083;BME280;18597;48.328;7.932;2024-01-10T00:53:21;100364.25;;;-1.71;82.11
32083;BME280;18597;48.328;7.932;2024-01-10T00:55:48;100359.06;;;-1.72;83.76
32083;BME280;18597;48.328;7.932;2024-01-10T00:58:14;100363.09;;;-1.57;78.77
32083;BME280;18597;48.328;7.932;2024-01-10T01:00:39;100360.31;;;-1.53;79.78
32083;BME280;18597;48.328;7.932;2024-01-10T01:03:06;100359.59;;;-1.58;78.95
32083;BME280;18597;48.328;7.932;2024-01-10T01:05:32;100358.88;;;-1.64;81.55
32083;BME280;18597;48.328;7.932;2024-01-10T01:07:58;100361.31;;;-1.57;82.33
32083;BME280;18597;48.328;7.932;2024-01-10T01:10:23;100359.38;;;-1.49;80.20
32083;BME280;18597;48.328;7.932;2024-01-10T01:12:49;100361.13;;;-1.49;74.55
32083;BME280;18597;48.328;7.932;2024-01-10T01:15:15;100350.31;;;-1.35;75.38
32083;BME280;18597;48.328;7.932;2024-01-10T01:17:41;100358.41;;;-1.46;75.66
32083;BME280;18597;48.328;7.932;2024-01-10T01:20:07;100354.84;;;-1.44;76.40
32083;BME280;18597;48.328;7.932;2024-01-10T01:22:33;100366.34;;;-1.48;77.39
32083;BME280;18597;48.328;7.932;2024-01-10T01:24:59;100360.94;;;-1.42;76.96
32083;BME280;18597;48.328;7.932;2024-01-10T01:27:25;100363.50;;;-1.40;76.51
32083;BME280;18597;48.328;7.932;2024-01-10T01:29:50;100362.38;;;-1.30;71.32
32083;BME280;18597;48.328;7.932;2024-01-10T01:32:16;100372.75;;;-1.25;69.28
32083;BME280;18597;48.328;7.932;2024-01-10T01:34:42;100357.97;;;-1.28;71.54
32083;BME280;18597;48.328;7.932;2024-01-10T01:37:08;100361.66;;;-1.35;71.62
32083;BME280;18597;48.328;7.932;2024-01-10T01:39:34;100367.00;;;-1.40;72.54
32083;BME280;18597;48.328;7.932;2024-01-10T01:42:00;100364.09;;;-1.27;71.86
32083;BME280;18597;48.328;7.932;2024-01-10T01:44:26;100369.66;;;-1.41;73.66
32083;BME280;18597;48.328;7.932;2024-01-10T01:46:51;100369.66;;;-1.41;75.96
32083;BME280;18597;48.328;7.932;2024-01-10T01:49:18;100366.94;;;-1.38;75.78
32083;BME280;18597;48.328;7.932;2024-01-10T01:51:44;100364.34;;;-1.38;72.44
32083;BME280;18597;48.328;7.932;2024-01-10T01:54:10;100367.19;;;-1.47;72.58
32083;BME280;18597;48.328;7.932;2024-01-10T01:56:37;100366.19;;;-1.42;73.39
32083;BME280;18597;48.328;7.932;2024-01-10T01:59:05;100362.56;;;-1.37;72.81
32083;BME280;18597;48.328;7.932;2024-01-10T02:01:31;100378.44;;;-1.42;72.50
32083;BME280;18597;48.328;7.932;2024-01-10T02:03:57;100366.34;;;-1.48;74.36
32083;BME280;18597;48.328;7.932;2024-01-10T02:06:23;100365.44;;;-1.47;74.59
32083;BME280;18597;48.328;7.932;2024-01-10T02:08:49;100364.47;;;-1.44;74.37
32083;BME280;18597;48.328;7.932;2024-01-10T02:11:15;100359.69;;;-1.27;72.00
32083;BME280;18597;48.328;7.932;2024-01-10T02:13:41;100358.03;;;-1.31;75.05
32083;BME280;18597;48.328;7.932;2024-01-10T02:16:07;100359.09;;;-1.38;74.07
32083;BME280;18597;48.328;7.932;2024-01-10T02:18:34;100362.41;;;-1.31;71.23
32083;BME280;18597;48.328;7.932;2024-01-10T02:21:01;100365.28;;;-1.41;72.13
32083;BME280;18597;48.328;7.932;2024-01-10T02:23:27;100366.03;;;-1.35;73.70
32083;BME280;18597;48.328;7.932;2024-01-10T02:25:53;100370.53;;;-1.41;73.93
32083;BME280;18597;48.328;7.932;2024-01-10T02:28:19;100366.19;;;-1.42;75.30
32083;BME280;18597;48.328;7.932;2024-01-10T02:30:45;100366.13;;;-1.40;72.28
32083;BME280;18597;48.328;7.932;2024-01-10T02:33:12;100371.44;;;-1.42;73.93
32083;BME280;18597;48.328;7.932;2024-01-10T02:35:38;100382.63;;;-1.36;73.02
32083;BME280;18597;48.328;7.932;2024-01-10T02:38:04;100370.63;;;-1.45;73.17
32083;BME280;18597;48.328;7.932;2024-01-10T02:40:30;100379.63;;;-1.55;74.35
32083;BME280;18597;48.328;7.932;2024-01-10T02:42:56;100383.28;;;-1.62;75.91
32083;BME280;18597;48.328;7.932;2024-01-10T02:45:22;100380.63;;;-1.61;76.47
32083;BME280;18597;48.328;7.932;2024-01-10T02:47:48;100387.63;;;-1.61;77.22
32083;BME280;18597;48.328;7.932;2024-01-10T02:50:13;100388.44;;;-1.58;76.27
32083;BME280;18597;48.328;7.932;2024-01-10T02:52:39;100391.03;;;-1.58;75.61
32083;BME280;18597;48.328;7.932;2024-01-10T02:55:05;100390.06;;;-1.54;75.68
32083;BME280;18597;48.328;7.932;2024-01-10T02:57:32;100379.97;;;-1.71;78.51
32083;BME280;18597;48.328;7.932;2024-01-10T02:59:57;100380.16;;;-1.78;81.25
32083;BME280;18597;48.328;7.932;2024-01-10T03:02:23;100384.59;;;-1.80;81.98
32083;BME280;18597;48.328;7.932;2024-01-10T03:04:49;100384.50;;;-1.77;81.45
32083;BME280;18597;48.328;7.932;2024-01-10T03:07:15;100386.34;;;-1.81;84.07
32083;BME280;18597;48.328;7.932;2024-01-10T03:09:41;100383.63;;;-1.78;86.24
32083;BME280;18597;48.328;7.932;2024-01-10T03:12:07;100383.72;;;-1.81;86.90
32083;BME280;18597;48.328;7.932;2024-01-10T03:14:33;100381.06;;;-1.79;87.80
32083;BME280;18597;48.328;7.932;2024-01-10T03:17:00;100376.72;;;-1.80;88.61
32083;BME280;18597;48.328;7.932;2024-01-10T03:19:26;100377.53;;;-1.78;90.70
32083;BME280;18597;48.328;7.932;2024-01-10T03:21:51;100377.53;;;-1.78;95.11
32083;BME280;18597;48.328;7.932;2024-01-10T03:24:17;100365.47;;;-1.85;97.10
32083;BME280;18597;48.328;7.932;2024-01-10T03:26:43;100374.47;;;-1.96;99.14
32083;BME280;18597;48.328;7.932;2024-01-10T03:29:09;100365.03;;;-2.04;100.00
32083;BME280;18597;48.328;7.932;2024-01-10T03:31:34;100376.44;;;-2.07;100.00
32083;BME280;18597;48.328;7.932;2024-01-10T03:34:00;100374.97;;;-2.18;100.00
32083;BME280;18597;48.328;7.932;2024-01-10T03:36:26;100372.53;;;-2.28;100.00
32083;BME280;18597;48.328;7.932;2024-01-10T03:38:52;100372.69;;;-2.34;100.00
32083;BME280;18597;48.328;7.932;2024-01-10T03:41:19;100371.88;;;-2.37;100.00
32083;BME280;18597;48.328;7.932;2024-01-10T03:43:46;100368.44;;;-2.39;100.00
32083;BME280;18597;48.328;7.932;2024-01-10T03:46:12;100358.16;;;-2.48;100.00
32083;BME280;18597;48.328;7.932;2024-01-10T03:48:39;100356.56;;;-2.56;100.00
32083;BME280;18597;48.328;7.932;2024-01-10T03:51:15;100353.25;;;-2.65;100.00
32083;BME280;18597;48.328;7.932;2024-01-10T03:53:41;100355.53;;;-2.50;100.00
32083;BME280;18597;48.328;7.932;2024-01-10T03:56:07;100353.09;;;-2.58;100.00
32083;BME280;18597;48.328;7.932;2024-01-10T03:58:33;100349.03;;;-2.72;100.00
32083;BME280;18597;48.328;7.932;2024-01-10T04:00:59;100350.03;;;-2.78;100.00
32083;BME280;18597;48.328;7.932;2024-01-10T04:03:25;100356.13;;;-2.77;100.00
32083;BME280;18597;48.328;7.932;2024-01-10T04:05:50;100352.66;;;-2.78;100.00
32083;BME280;18597;48.328;7.932;2024-01-10T04:08:16;100347.41;;;-2.78;100.00
32083;BME280;18597;48.328;7.932;2024-01-10T04:10:43;100357.56;;;-2.63;100.00
32083;BME280;18597;48.328;7.932;2024-01-10T04:13:08;100355.97;;;-2.70;100.00
32083;BME280;18597;48.328;7.932;2024-01-10T04:15:34;100347.31;;;-2.73;100.00
32083;BME280;18597;48.328;7.932;2024-01-10T04:18:00;100356.97;;;-2.77;100.00
32083;BME280;18597;48.328;7.932;2024-01-10T04:20:26;100361.47;;;-2.84;100.00
32083;BME280;18597;48.328;7.932;2024-01-10T04:22:52;100358.13;;;-2.92;100.00
32083;BME280;18597;48.328;7.932;2024-01-10T04:25:17;100371.22;;;-2.92;100.00
32083;BME280;18597;48.328;7.932;2024-01-10T04:27:43;100367.72;;;-2.92;100.00
32083;BME280;18597;48.328;7.932;2024-01-10T04:30:09;100365.16;;;-2.95;100.00
32083;BME280;18597;48.328;7.932;2024-01-10T04:32:35;100358.25;;;-2.98;100.00
32083;BME280;18597;48.328;7.932;2024-01-10T04:35:01;100350.84;;;-2.76;100.00
32083;BME280;18597;48.328;7.932;2024-01-10T04:37:27;100357.88;;;-2.78;100.00
32083;BME280;18597;48.328;7.932;2024-01-10T04:39:53;100358.25;;;-2.98;100.00
32083;BME280;18597;48.328;7.932;2024-01-10T04:42:19;100365.44;;;-3.09;100.00
32083;BME280;18597;48.328;7.932;2024-01-10T04:44:45;100357.75;;;-3.17;100.00
32083;BME280;18597;48.328;7.932;2024-01-10T04:47:11;100356.13;;;-3.24;100.00
32083;BME280;18597;48.328;7.932;2024-01-10T04:49:36;100350.06;;;-3.27;100.00
32083;BME280;18597;48.328;7.932;2024-01-10T04:52:02;100347.59;;;-3.35;100.00
32083;BME280;18597;48.328;7.932;2024-01-10T04:54:28;100362.41;;;-3.36;100.00
32083;BME280;18597;48.328;7.932;2024-01-10T04:56:54;100355.28;;;-3.27;100.00
32083;BME280;18597;48.328;7.932;2024-01-10T04:59:20;100354.38;;;-3.23;100.00
32083;BME280;18597;48.328;7.932;2024-01-10T05:01:46;100360.91;;;-2.99;100.00
32083;BME280;18597;48.328;7.932;2024-01-10T05:04:11;100355.88;;;-3.12;100.00
32083;BME280;18597;48.328;7.932;2024-01-10T05:06:37;100366.53;;;-3.22;100.00
32083;BME280;18597;48.328;7.932;2024-01-10T05:09:03;100360.50;;;-3.24;100.00
32083;BME280;18597;48.328;7.932;2024-01-10T05:11:30;100363.22;;;-3.32;100.00
32083;BME280;18597;48.328;7.932;2024-01-10T05:13:56;100373.06;;;-3.48;100.00
32083;BME280;18597;48.328;7.932;2024-01-10T05:16:21;100374.09;;;-3.58;100.00
32083;BME280;18597;48.328;7.932;2024-01-10T05:18:47;100371.53;;;-3.59;100.00
32083;BME280;18597;48.328;7.932;2024-01-10T05:21:13;100368.06;;;-3.63;100.00
32083;BME280;18597;48.328;7.932;2024-01-10T05:23:39;100366.56;;;-3.76;100.00
32083;BME280;18597;48.328;7.932;2024-01-10T05:26:06;100364.69;;;-3.68;100.00
32083;BME280;18597;48.328;7.932;2024-01-10T05:28:31;100358.72;;;-3.76;100.00
32083;BME280;18597;48.328;7.932;2024-01-10T05:30:59;100357.06;;;-3.82;100.00
32083;BME280;18597;48.328;7.932;2024-01-10T05:33:24;100367.56;;;-3.86;100.00
32083;BME280;18597;48.328;7.932;2024-01-10T05:35:51;100362.59;;;-4.02;100.00
32083;BME280;18597;48.328;7.932;2024-01-10T05:38:16;100364.44;;;-4.10;100.00
32083;BME280;18597;48.328;7.932;2024-01-10T05:40:42;100367.13;;;-4.16;100.00
32083;BME280;18597;48.328;7.932;2024-01-10T05:43:08;100371.56;;;-4.21;100.00
32083;BME280;18597;48.328;7.932;2024-01-10T05:45:36;100373.41;;;-4.28;100.00
32083;BME280;18597;48.328;7.932;2024-01-10T05:48:02;100365.75;;;-4.41;100.00
32083;BME280;18597;48.328;7.932;2024-01-10T05:50:28;100370.16;;;-4.45;100.00
32083;BME280;18597;48.328;7.932;2024-01-10T05:52:54;100359.78;;;-4.51;100.00
32083;BME280;18597;48.328;7.932;2024-01-10T05:55:20;100357.19;;;-4.54;100.00
32083;BME280;18597;48.328;7.932;2024-01-10T05:57:46;100358.03;;;-4.49;100.00
32083;BME280;18597;48.328;7.932;2024-01-10T06:00:12;100359.78;;;-4.51;100.00
32083;BME280;18597;48.328;7.932;2024-01-10T06:02:39;100359.84;;;-4.57;100.00
32083;BME280;18597;48.328;7.932;2024-01-10T06:05:08;100365.09;;;-4.59;100.00
32083;BME280;18597;48.328;7.932;2024-01-10T06:07:37;100357.34;;;-4.65;100.00
32083;BME280;18597;48.328;7.932;2024-01-10T06:10:04;100359.84;;;-4.57;100.00
32083;BME280;18597;48.328;7.932;2024-01-10T06:12:30;100365.13;;;-4.62;100.00
32083;BME280;18597;48.328;7.932;2024-01-10T06:14:55;100367.03;;;-4.78;100.00
32083;BME280;18597;48.328;7.932;2024-01-10T06:17:21;100364.19;;;-4.56;100.00
32083;BME280;18597;48.328;7.932;2024-01-10T06:19:47;100356.44;;;-4.62;100.00
32083;BME280;18597;48.328;7.932;2024-01-10T06:22:13;100355.75;;;-4.75;100.00
32083;BME280;18597;48.328;7.932;2024-01-10T06:24:39;100361.84;;;-4.78;100.00
32083;BME280;18597;48.328;7.932;2024-01-10T06:27:06;100356.63;;;-4.78;100.00
32083;BME280;18597;48.328;7.932;2024-01-10T06:29:32;100362.66;;;-4.72;100.00
32083;BME280;18597;48.328;7.932;2024-01-10T06:31:58;100362.63;;;-4.71;100.00
32083;BME280;18597;48.328;7.932;2024-01-10T06:34:27;100362.63;;;-4.71;100.00
32083;BME280;18597;48.328;7.932;2024-01-10T06:36:53;100373.91;;;-4.70;100.00
32083;BME280;18597;48.328;7.932;2024-01-10T06:39:19;100373.09;;;-4.74;100.00
32083;BME280;18597;48.328;7.932;2024-01-10T06:41:47;100374.88;;;-4.79;100.00
32083;BME280;18597;48.328;7.932;2024-01-10T06:44:13;100370.59;;;-4.85;100.00
32083;BME280;18597;48.328;7.932;2024-01-10T06:46:39;100375.00;;;-4.91;100.00
32083;BME280;18597;48.328;7.932;2024-01-10T06:49:05;100375.88;;;-4.88;100.00
32083;BME280;18597;48.328;7.932;2024-01-10T06:51:32;100379.25;;;-4.80;100.00
32083;BME280;18597;48.328;7.932;2024-01-10T06:53:58;100376.75;;;-4.89;100.00
32083;BME280;18597;48.328;7.932;2024-01-10T06:56:32;100381.13;;;-4.94;100.00
32083;BME280;18597;48.328;7.932;2024-01-10T06:58:59;100392.44;;;-4.95;100.00
32083;BME280;18597;48.328;7.932;2024-01-10T07:01:26;100392.41;;;-4.93;100.00
32083;BME280;18597;48.328;7.932;2024-01-10T07:03:53;100396.78;;;-4.95;100.00
32083;BME280;18597;48.328;7.932;2024-01-10T07:06:21;100399.41;;;-4.95;100.00
32083;BME280;18597;48.328;7.932;2024-01-10T07:08:49;100398.44;;;-4.87;100.00
32083;BME280;18597;48.328;7.932;2024-01-10T07:11:16;100408.81;;;-4.82;100.00
32083;BME280;18597;48.328;7.932;2024-01-10T07:13:43;100406.97;;;-4.72;100.00
32083;BME280;18597;48.328;7.932;2024-01-10T07:16:09;100399.94;;;-4.64;100.00
32083;BME280;18597;48.328;7.932;2024-01-10T07:18:35;100405.06;;;-4.58;100.00
32083;BME280;18597;48.328;7.932;2024-01-10T07:21:01;100403.19;;;-4.44;100.00
32083;BME280;18597;48.328;7.932;2024-01-10T07:23:27;100409.94;;;-4.31;100.00
32083;BME280;18597;48.328;7.932;2024-01-10T07:25:53;100414.25;;;-4.27;100.00
32083;BME280;18597;48.328;7.932;2024-01-10T07:28:19;100416.72;;;-4.18;100.00
32083;BME280;18597;48.328;7.932;2024-01-10T07:30:46;100414.22;;;-4.25;100.00
32083;BME280;18597;48.328;7.932;2024-01-10T07:33:12;100418.56;;;-4.23;100.00
32083;BME280;18597;48.328;7.932;2024-01-10T07:35:38;100410.75;;;-4.23;100.00
32083;BME280;18597;48.328;7.932;2024-01-10T07:38:05;100422.81;;;-4.17;100.00
32083;BME280;18597;48.328;7.932;2024-01-10T07:40:35;100421.38;;;-4.41;100.00
32083;BME280;18597;48.328;7.932;2024-01-10T07:43:01;100421.47;;;-4.49;100.00
32083;BME280;18597;48.328;7.932;2024-01-10T07:45:27;100425.81;;;-4.48;100.00
32083;BME280;18597;48.328;7.932;2024-01-10T07:47:53;100431.09;;;-4.55;100.00
32083;BME280;18597;48.328;7.932;2024-01-10T07:50:19;100424.22;;;-4.59;100.00
32083;BME280;18597;48.328;7.932;2024-01-10T07:52:45;100432.00;;;-4.56;100.00
32083;BME280;18597;48.328;7.932;2024-01-10T07:55:12;100434.50;;;-4.49;100.00
32083;BME280;18597;48.328;7.932;2024-01-10T07:57:38;100439.63;;;-4.41;100.00
32083;BME280;18597;48.328;7.932;2024-01-10T08:00:06;100438.63;;;-4.28;100.00
32083;BME280;18597;48.328;7.932;2024-01-10T08:02:39;100434.88;;;-4.07;100.00
32083;BME280;18597;48.328;7.932;2024-01-10T08:05:06;100437.47;;;-4.05;100.00
32083;BME280;18597;48.328;7.932;2024-01-10T08:07:36;100440.88;;;-4.02;100.00
32083;BME280;18597;48.328;7.932;2024-01-10T08:10:06;100444.34;;;-4.01;100.00
32083;BME280;18597;48.328;7.932;2024-01-10T08:12:33;100444.34;;;-4.01;100.00
32083;BME280;18597;48.328;7.932;2024-01-10T08:14:59;100444.34;;;-4.01;100.00
32083;BME280;18597;48.328;7.932;2024-01-10T08:17:25;100453.13;;;-4.05;100.00
32083;BME280;18597;48.328;7.932;2024-01-10T08:19:51;100449.69;;;-4.07;100.00
32083;BME280;18597;48.328;7.932;2024-01-10T08:22:17;100447.06;;;-4.07;100.00
32083;BME280;18597;48.328;7.932;2024-01-10T08:24:46;100449.69;;;-4.07;100.00
32083;BME280;18597;48.328;7.932;2024-01-10T08:27:12;100451.31;;;-4.00;100.00
32083;BME280;18597;48.328;7.932;2024-01-10T08:29:38;100445.22;;;-3.99;100.00
32083;BME280;18597;48.328;7.932;2024-01-10T08:32:05;100449.53;;;-3.97;100.00
32083;BME280;18597;48.328;7.932;2024-01-10T08:34:31;100448.50;;;-3.85;100.00
32083;BME280;18597;48.328;7.932;2024-01-10T08:36:56;100447.47;;;-3.73;100.00
32083;BME280;18597;48.328;7.932;2024-01-10T08:39:22;100445.53;;;-3.60;100.00
32083;BME280;18597;48.328;7.932;2024-01-10T08:41:50;100442.88;;;-3.57;100.00
32083;BME280;18597;48.328;7.932;2024-01-10T08:44:15;100442.75;;;-3.50;100.00
32083;BME280;18597;48.328;7.932;2024-01-10T08:46:41;100441.50;;;-3.26;100.00
32083;BME280;18597;48.328;7.932;2024-01-10T08:49:07;100448.31;;;-3.16;100.00
32083;BME280;18597;48.328;7.932;2024-01-10T08:51:33;100446.38;;;-3.04;100.00
32083;BME280;18597;48.328;7.932;2024-01-10T08:53:59;100451.31;;;-2.88;100.00
32083;BME280;18597;48.328;7.932;2024-01-10T08:56:25;100444.19;;;-2.78;100.00
32083;BME280;18597;48.328;7.932;2024-01-10T08:58:52;100443.78;;;-2.57;100.00
32083;BME280;18597;48.328;7.932;2024-01-10T09:01:18;100442.56;;;-2.39;100.00
32083;BME280;18597;48.328;7.932;2024-01-10T09:03:45;100442.16;;;-2.19;100.00
32083;BME280;18597;48.328;7.932;2024-01-10T09:06:11;100435.00;;;-2.11;100.00
32083;BME280;18597;48.328;7.932;2024-01-10T09:08:38;100446.19;;;-2.03;100.00
32083;BME280;18597;48.328;7.932;2024-01-10T09:11:05;100445.78;;;-1.84;100.00
32083;BME280;18597;48.328;7.932;2024-01-10T09:13:31;100446.59;;;-1.82;100.00
32083;BME280;18597;48.328;7.932;2024-01-10T09:15:57;100451.72;;;-1.76;100.00
32083;BME280;18597;48.328;7.932;2024-01-10T09:18:23;100452.41;;;-1.68;100.00
32083;BME280;18597;48.328;7.932;2024-01-10T09:20:49;100448.88;;;-1.67;100.00
32083;BME280;18597;48.328;7.932;2024-01-10T09:23:14;100451.28;;;-1.56;100.00
32083;BME280;18597;48.328;7.932;2024-01-10T09:25:41;100454.75;;;-1.56;100.00
32083;BME280;18597;48.328;7.932;2024-01-10T09:28:07;100451.00;;;-1.46;100.00
32083;BME280;18597;48.328;7.932;2024-01-10T09:30:33;100452.72;;;-1.43;100.00
32083;BME280;18597;48.328;7.932;2024-01-10T09:32:59;100455.84;;;-1.29;100.00
32083;BME280;18597;48.328;7.932;2024-01-10T09:35:26;100454.16;;;-1.31;100.00
32083;BME280;18597;48.328;7.932;2024-01-10T09:37:52;100441.81;;;-1.26;100.00
32083;BME280;18597;48.328;7.932;2024-01-10T09:40:19;100443.34;;;-1.18;99.97
32083;BME280;18597;48.328;7.932;2024-01-10T09:42:49;100447.13;;;-0.94;96.55
32083;BME280;18597;48.328;7.932;2024-01-10T09:45:17;100452.31;;;-0.92;97.17
32083;BME280;18597;48.328;7.932;2024-01-10T09:47:49;100453.16;;;-0.90;98.17
32083;BME280;18597;48.328;7.932;2024-01-10T09:50:17;100455.47;;;-0.78;95.78
32083;BME280;18597;48.328;7.932;2024-01-10T09:53:06;100459.91;;;-0.80;96.03
32083;BME280;18597;48.328;7.932;2024-01-10T09:55:36;100457.47;;;-0.88;97.45
32083;BME280;18597;48.328;7.932;2024-01-10T09:58:05;100456.03;;;-1.01;99.68
32083;BME280;18597;48.328;7.932;2024-01-10T10:00:33;100453.66;;;-1.10;99.95
32083;BME280;18597;48.328;7.932;2024-01-10T10:03:02;100451.31;;;-1.22;100.00
32083;BME280;18597;48.328;7.932;2024-01-10T10:05:30;100450.56;;;-1.26;100.00
32083;BME280;18597;48.328;7.932;2024-01-10T10:07:56;100451.50;;;-1.28;100.00
32083;BME280;18597;48.328;7.932;2024-01-10T10:10:24;100449.59;;;-1.23;100.00
32083;BME280;18597;48.328;7.932;2024-01-10T10:12:52;100449.31;;;-1.11;100.00
32083;BME280;18597;48.328;7.932;2024-01-10T10:15:21;100448.84;;;-0.93;97.70
32083;BME280;18597;48.328;7.932;2024-01-10T10:17:49;100452.13;;;-0.85;98.95
32083;BME280;18597;48.328;7.932;2024-01-10T10:20:26;100443.84;;;-0.69;97.99
32083;BME280;18597;48.328;7.932;2024-01-10T10:23:09;100442.59;;;-0.54;96.89
32083;BME280;18597;48.328;7.932;2024-01-10T10:25:43;100444.84;;;-0.41;93.96
32083;BME280;18597;48.328;7.932;2024-01-10T10:28:09;100433.63;;;-0.47;93.17
32083;BME280;18597;48.328;7.932;2024-01-10T10:30:35;100437.50;;;-0.28;88.83
32083;BME280;18597;48.328;7.932;2024-01-10T10:33:02;100438.19;;;-0.21;87.66
32083;BME280;18597;48.328;7.932;2024-01-10T10:35:28;100437.16;;;-0.17;86.70
32083;BME280;18597;48.328;7.932;2024-01-10T10:37:54;100442.38;;;-0.16;85.24
32083;BME280;18597;48.328;7.932;2024-01-10T10:40:21;100450.44;;;-0.22;86.93
32083;BME280;18597;48.328;7.932;2024-01-10T10:42:54;100451.31;;;-0.21;87.87
32083;BME280;18597;48.328;7.932;2024-01-10T10:45:20;100457.78;;;-0.04;85.11
32083;BME280;18597;48.328;7.932;2024-01-10T10:47:58;100462.94;;;0.01;83.94
32083;BME280;18597;48.328;7.932;2024-01-10T10:50:28;100460.84;;;0.12;83.12
32083;BME280;18597;48.328;7.932;2024-01-10T10:52:55;100464.13;;;0.19;83.55
32083;BME280;18597;48.328;7.932;2024-01-10T10:55:22;100465.50;;;0.32;83.89
32083;BME280;18597;48.328;7.932;2024-01-10T10:57:50;100462.34;;;0.49;79.48
32083;BME280;18597;48.328;7.932;2024-01-10T11:00:19;100457.22;;;0.44;77.51
32083;BME280;18597;48.328;7.932;2024-01-10T11:02:46;100458.81;;;0.50;76.19
32083;BME280;18597;48.328;7.932;2024-01-10T11:05:12;100465.03;;;0.47;78.20
32083;BME280;18597;48.328;7.932;2024-01-10T11:07:41;100457.19;;;0.46;79.65
32083;BME280;18597;48.328;7.932;2024-01-10T11:10:19;100466.06;;;0.42;80.12
32083;BME280;18597;48.328;7.932;2024-01-10T11:19:58;100468.63;;;0.15;81.75
32083;BME280;18597;48.328;7.932;2024-01-10T11:23:20;100465.09;;;0.16;80.74
32083;BME280;18597;48.328;7.932;2024-01-10T11:25:30;100461.47;;;0.20;79.56
32083;BME280;18597;48.328;7.932;2024-01-10T11:27:56;100454.25;;;0.27;80.74
32083;BME280;18597;48.328;7.932;2024-01-10T11:30:47;100446.31;;;0.28;80.36
32083;BME280;18597;48.328;7.932;2024-01-10T11:33:35;100446.13;;;0.35;79.47
32083;BME280;18597;48.328;7.932;2024-01-10T11:36:08;100447.41;;;0.21;81.28
32083;BME280;18597;48.328;7.932;2024-01-10T11:41:30;100443.00;;;0.23;80.81
32083;BME280;18597;48.328;7.932;2024-01-10T11:46:53;100441.44;;;0.46;78.21
32083;BME280;18597;48.328;7.932;2024-01-10T11:49:22;100420.75;;;0.62;78.35
32083;BME280;18597;48.328;7.932;2024-01-10T11:51:53;100429.88;;;0.78;74.59
32083;BME280;18597;48.328;7.932;2024-01-10T11:54:44;100425.97;;;0.90;74.16
32083;BME280;18597;48.328;7.932;2024-01-10T11:57:28;100421.94;;;1.06;74.29
32083;BME280;18597;48.328;7.932;2024-01-10T11:59:55;100418.78;;;1.21;73.12
32083;BME280;18597;48.328;7.932;2024-01-10T12:02:23;100409.25;;;1.42;71.90
32083;BME280;18597;48.328;7.932;2024-01-10T12:04:50;100414.66;;;1.62;69.43
32083;BME280;18597;48.328;7.932;2024-01-10T12:07:18;100411.25;;;1.84;67.54
32083;BME280;18597;48.328;7.932;2024-01-10T12:09:45;100416.84;;;1.98;68.16
32083;BME280;18597;48.328;7.932;2024-01-10T12:12:13;100419.47;;;2.21;66.93
32083;BME280;18597;48.328;7.932;2024-01-10T12:14:41;100426.66;;;2.40;66.11
32083;BME280;18597;48.328;7.932;2024-01-10T12:17:08;100427.41;;;2.43;65.48
32083;BME280;18597;48.328;7.932;2024-01-10T12:19:35;100418.81;;;2.38;65.63
32083;BME280;18597;48.328;7.932;2024-01-10T12:22:04;100414.38;;;2.17;66.31
32083;BME280;18597;48.328;7.932;2024-01-10T12:24:31;100411.28;;;2.06;67.22
32083;BME280;18597;48.328;7.932;2024-01-10T12:26:57;100410.75;;;1.96;67.17
32083;BME280;18597;48.328;7.932;2024-01-10T12:29:23;100419.03;;;1.87;68.07
32083;BME280;18597;48.328;7.932;2024-01-10T12:31:51;100416.00;;;1.74;69.27
32083;BME280;18597;48.328;7.932;2024-01-10T12:34:17;100407.41;;;1.69;70.70
32083;BME280;18597;48.328;7.932;2024-01-10T12:36:43;100405.78;;;1.65;70.00
32083;BME280;18597;48.328;7.932;2024-01-10T12:39:10;100409.59;;;1.56;69.07
32083;BME280;18597;48.328;7.932;2024-01-10T12:41:37;100411.50;;;1.53;71.12
32083;BME280;18597;48.328;7.932;2024-01-10T12:44:04;100414.53;;;1.65;71.86
32083;BME280;18597;48.328;7.932;2024-01-10T12:46:31;100406.19;;;1.54;71.89
32083;BME280;18597;48.328;7.932;2024-01-10T12:49:02;100399.34;;;1.49;71.79
32083;BME280;18597;48.328;7.932;2024-01-10T12:51:30;100404.63;;;1.49;71.88
32083;BME280;18597;48.328;7.932;2024-01-10T12:53:57;100395.00;;;1.48;71.75
32083;BME280;18597;48.328;7.932;2024-01-10T12:56:26;100400.41;;;1.45;72.20
32083;BME280;18597;48.328;7.932;2024-01-10T12:58:52;100399.63;;;1.41;73.34